createdAt,value
2023-03-21T00:01:43.876Z,20.67
2023-03-21T00:04:12.019Z,20.66
2023-03-21T00:06:40.608Z,20.66
2023-03-21T00:09:08.276Z,20.66
2023-03-21T00:11:35.985Z,20.66
2023-03-21T00:14:03.659Z,20.67
2023-03-21T00:16:39.966Z,20.67
2023-03-21T00:19:10.677Z,20.67
2023-03-21T00:21:49.026Z,20.67
2023-03-21T00:24:19.860Z,20.67
2023-03-21T00:26:47.540Z,20.66
2023-03-21T00:29:15.295Z,20.67
2023-03-21T00:31:44.948Z,20.68
2023-03-21T00:34:14.150Z,20.67
2023-03-21T00:36:42.029Z,20.66
2023-03-21T00:39:09.740Z,20.66
2023-03-21T00:41:44.556Z,20.67
2023-03-21T00:44:13.765Z,20.67
2023-03-21T00:46:49.307Z,20.67
2023-03-21T00:49:23.433Z,20.67
2023-03-21T00:51:53.199Z,20.67
2023-03-21T00:54:21.124Z,20.67
2023-03-21T00:56:48.836Z,20.68
2023-03-21T00:59:16.608Z,20.69
2023-03-21T01:01:46.480Z,20.71
2023-03-21T01:04:16.829Z,20.71
2023-03-21T01:06:46.093Z,20.72
2023-03-21T01:09:15.060Z,20.71
2023-03-21T01:11:43.048Z,20.71
2023-03-21T01:14:21.976Z,20.72
2023-03-21T01:16:50.999Z,20.72
2023-03-21T01:19:50.658Z,20.72
2023-03-21T01:22:08.951Z,20.72
2023-03-21T01:24:40.473Z,20.72
2023-03-21T01:27:11.594Z,20.73
2023-03-21T01:29:39.301Z,20.73
2023-03-21T01:32:07.116Z,20.73
2023-03-21T01:34:34.784Z,20.72
2023-03-21T01:37:02.640Z,20.73
2023-03-21T01:39:34.836Z,20.73
2023-03-21T01:42:02.598Z,20.74
2023-03-21T01:44:30.780Z,20.74
2023-03-21T01:47:10.367Z,20.74
2023-03-21T01:49:39.589Z,20.73
2023-03-21T01:52:13.038Z,20.74
2023-03-21T01:54:43.198Z,20.74
2023-03-21T01:57:11.763Z,20.74
2023-03-21T01:59:41.648Z,20.74
2023-03-21T02:02:10.626Z,20.74
2023-03-21T02:04:38.565Z,20.72
2023-03-21T02:07:08.070Z,20.71
2023-03-21T02:09:36.312Z,20.70
2023-03-21T02:12:07.221Z,20.71
2023-03-21T02:14:35.002Z,20.71
2023-03-21T02:17:06.436Z,20.71
2023-03-21T02:20:09.182Z,20.75
2023-03-21T02:22:55.936Z,20.78
2023-03-21T02:26:03.915Z,20.79
2023-03-21T02:28:34.002Z,20.82
2023-03-21T02:31:23.868Z,20.83
2023-03-21T02:34:41.919Z,20.83
2023-03-21T02:37:28.840Z,20.83
2023-03-21T02:40:07.944Z,20.81
2023-03-21T02:42:37.542Z,20.82
2023-03-21T02:45:07.496Z,20.81
2023-03-21T02:47:35.783Z,20.82
2023-03-21T02:50:06.872Z,20.80
2023-03-21T02:52:39.631Z,20.80
2023-03-21T02:55:13.554Z,20.80
2023-03-21T02:57:43.349Z,20.78
2023-03-21T03:00:17.006Z,20.79
2023-03-21T03:02:45.179Z,20.78
2023-03-21T03:05:21.255Z,20.76
2023-03-21T03:08:07.848Z,20.76
2023-03-21T03:10:44.487Z,20.75
2023-03-21T03:13:22.199Z,20.75
2023-03-21T03:15:55.401Z,20.74
2023-03-21T03:18:27.459Z,20.73
2023-03-21T03:21:01.418Z,20.72
2023-03-21T03:23:31.704Z,20.71
2023-03-21T03:26:01.410Z,20.72
2023-03-21T03:28:32.074Z,20.72
2023-03-21T03:31:09.342Z,20.71
2023-03-21T03:33:38.319Z,20.71
2023-03-21T03:36:07.113Z,20.70
2023-03-21T03:38:36.992Z,20.70
2023-03-21T03:41:07.907Z,20.69
2023-03-21T03:43:37.496Z,20.69
2023-03-21T03:46:10.405Z,20.70
2023-03-21T03:48:46.322Z,20.69
2023-03-21T03:51:16.843Z,20.69
2023-03-21T03:53:46.224Z,20.69
2023-03-21T03:56:14.013Z,20.69
2023-03-21T03:58:45.688Z,20.68
2023-03-21T04:01:14.032Z,20.68
2023-03-21T04:03:49.707Z,20.68
2023-03-21T04:06:19.003Z,20.68
2023-03-21T04:08:48.039Z,20.69
2023-03-21T04:11:16.176Z,20.69
2023-03-21T04:13:43.877Z,20.69
2023-03-21T04:16:12.911Z,20.70
2023-03-21T04:18:40.853Z,20.71
2023-03-21T04:21:10.669Z,20.70
2023-03-21T04:23:38.355Z,20.71
2023-03-21T04:26:07.981Z,20.70
2023-03-21T04:28:36.267Z,20.71
2023-03-21T04:31:13.509Z,20.71
2023-03-21T04:33:50.233Z,20.70
2023-03-21T04:36:26.333Z,20.71
2023-03-21T04:38:54.265Z,20.70
2023-03-21T04:41:23.484Z,20.70
2023-03-21T04:43:52.613Z,20.70
2023-03-21T04:46:20.413Z,20.72
2023-03-21T04:48:48.887Z,20.72
2023-03-21T04:51:16.558Z,20.72
2023-03-21T04:53:45.843Z,20.70
2023-03-21T04:56:13.591Z,20.71
2023-03-21T04:58:42.618Z,20.71
2023-03-21T05:01:10.446Z,20.72
2023-03-21T05:03:40.299Z,20.71
2023-03-21T05:06:09.343Z,20.71
2023-03-21T05:08:37.093Z,20.71
2023-03-21T05:11:05.232Z,20.71
2023-03-21T05:13:33.153Z,20.70
2023-03-21T05:16:02.175Z,20.71
2023-03-21T05:18:30.420Z,20.71
2023-03-21T05:20:58.110Z,20.72
2023-03-21T05:23:25.808Z,20.71
2023-03-21T05:25:53.601Z,20.72
2023-03-21T05:28:21.318Z,20.73
2023-03-21T05:30:49.009Z,20.75
2023-03-21T05:33:18.124Z,20.77
2023-03-21T05:35:45.902Z,20.78
2023-03-21T05:38:13.599Z,20.80
2023-03-21T05:40:41.296Z,20.82
2023-03-21T05:43:09.016Z,20.84
2023-03-21T05:45:36.920Z,20.84
2023-03-21T05:48:05.223Z,20.85
2023-03-21T05:50:34.306Z,20.86
2023-03-21T05:53:02.248Z,20.87
2023-03-21T05:55:29.970Z,20.88
2023-03-21T05:57:57.670Z,20.88
2023-03-21T06:00:26.063Z,20.89
2023-03-21T06:02:53.791Z,20.90
2023-03-21T06:05:21.564Z,20.90
2023-03-21T06:07:50.740Z,20.91
2023-03-21T06:10:18.590Z,20.92
2023-03-21T06:12:46.258Z,20.93
2023-03-21T06:15:14.014Z,20.91
2023-03-21T06:17:42.282Z,20.87
2023-03-21T06:20:11.487Z,20.83
2023-03-21T06:22:39.198Z,20.80
2023-03-21T06:25:09.754Z,20.76
2023-03-21T06:27:37.485Z,20.73
2023-03-21T06:30:05.940Z,20.69
2023-03-21T06:32:33.765Z,20.65
2023-03-21T06:35:01.456Z,20.63
2023-03-21T06:37:29.161Z,20.61
2023-03-21T06:39:56.833Z,20.62
2023-03-21T06:42:25.847Z,20.62
2023-03-21T06:44:53.605Z,20.61
2023-03-21T06:47:21.278Z,20.62
2023-03-21T06:49:48.951Z,20.62
2023-03-21T06:52:16.646Z,20.61
2023-03-21T06:54:44.307Z,20.62
2023-03-21T06:57:13.399Z,20.63
2023-03-21T06:59:42.640Z,20.65
2023-03-21T07:02:11.175Z,20.65
2023-03-21T07:04:39.020Z,20.67
2023-03-21T07:07:06.808Z,20.68
2023-03-21T07:09:34.494Z,20.69
2023-03-21T07:12:02.193Z,20.70
2023-03-21T07:14:31.980Z,20.71
2023-03-21T07:17:01.164Z,20.72
2023-03-21T07:19:28.821Z,20.74
2023-03-21T07:21:56.858Z,20.76
2023-03-21T07:24:24.529Z,20.77
2023-03-21T07:26:52.205Z,20.79
2023-03-21T07:29:21.482Z,20.81
2023-03-21T07:31:49.546Z,20.86
2023-03-21T07:34:18.914Z,20.89
2023-03-21T07:36:46.686Z,20.90
2023-03-21T07:39:14.368Z,20.92
2023-03-21T07:41:42.112Z,20.92
2023-03-21T07:44:09.785Z,20.92
2023-03-21T07:46:37.483Z,20.92
2023-03-21T07:49:06.033Z,20.92
2023-03-21T07:51:36.055Z,20.93
2023-03-21T07:54:03.844Z,20.93
2023-03-21T07:56:31.543Z,20.93
2023-03-21T07:58:59.428Z,20.91
2023-03-21T08:01:27.323Z,20.91
2023-03-21T08:03:55.089Z,20.90
2023-03-21T08:06:22.857Z,20.90
2023-03-21T08:08:51.882Z,20.90
2023-03-21T08:11:21.456Z,20.90
2023-03-21T08:13:49.577Z,20.90
2023-03-21T08:16:17.270Z,20.89
2023-03-21T08:18:45.017Z,20.90
2023-03-21T08:21:12.715Z,20.89
2023-03-21T08:23:40.388Z,20.90
2023-03-21T08:26:10.224Z,20.91
2023-03-21T08:28:39.339Z,20.90
2023-03-21T08:31:08.569Z,20.90
2023-03-21T08:33:36.357Z,20.89
2023-03-21T08:36:04.126Z,20.91
2023-03-21T08:38:33.474Z,20.90
2023-03-21T08:41:01.389Z,20.90
2023-03-21T08:43:30.574Z,20.90
2023-03-21T08:45:58.415Z,20.91
2023-03-21T08:48:26.230Z,20.92
2023-03-21T08:50:53.931Z,20.92
2023-03-21T08:53:21.632Z,20.93
2023-03-21T08:55:50.420Z,20.93
2023-03-21T08:58:18.402Z,20.93
2023-03-21T09:00:47.827Z,20.94
2023-03-21T09:03:15.501Z,20.94
2023-03-21T09:05:45.540Z,20.93
2023-03-21T09:08:14.045Z,20.93
2023-03-21T09:10:41.713Z,20.93
2023-03-21T09:13:09.432Z,20.94
2023-03-21T09:15:37.575Z,20.95
2023-03-21T09:18:15.051Z,20.96
2023-03-21T09:20:43.141Z,20.97
2023-03-21T09:23:11.435Z,20.97
2023-03-21T09:25:39.420Z,20.98
2023-03-21T09:28:07.372Z,20.96
2023-03-21T09:30:35.671Z,20.96
2023-03-21T09:33:03.618Z,20.95
2023-03-21T09:35:32.755Z,20.95
2023-03-21T09:38:00.507Z,20.95
2023-03-21T09:40:47.764Z,20.98
2023-03-21T09:43:22.111Z,21.00
2023-03-21T09:45:52.486Z,20.99
2023-03-21T09:48:31.755Z,20.98
2023-03-21T09:51:01.128Z,20.99
2023-03-21T09:53:30.975Z,20.98
2023-03-21T09:55:59.615Z,20.99
2023-03-21T09:58:29.046Z,20.97
2023-03-21T10:01:01.093Z,20.99
2023-03-21T10:03:31.316Z,20.99
2023-03-21T10:06:01.587Z,20.97
2023-03-21T10:08:31.096Z,20.97
2023-03-21T10:11:01.181Z,20.97
2023-03-21T10:13:29.947Z,20.97
2023-03-21T10:15:57.944Z,20.98
2023-03-21T10:18:26.995Z,20.97
2023-03-21T10:20:54.768Z,20.98
2023-03-21T10:23:26.550Z,20.98
2023-03-21T10:25:55.920Z,20.99
2023-03-21T10:28:26.273Z,21.01
2023-03-21T10:30:54.383Z,21.03
2023-03-21T10:33:23.621Z,21.02
2023-03-21T10:35:52.412Z,21.02
2023-03-21T10:38:21.000Z,21.03
2023-03-21T10:40:50.207Z,21.03
2023-03-21T10:43:31.153Z,21.03
2023-03-21T10:45:59.341Z,21.04
2023-03-21T10:48:27.304Z,21.04
2023-03-21T10:50:55.651Z,21.03
2023-03-21T10:53:24.016Z,21.03
2023-03-21T10:55:53.718Z,21.03
2023-03-21T10:58:27.246Z,21.03
2023-03-21T11:00:57.901Z,21.05
2023-03-21T11:03:29.671Z,21.07
2023-03-21T11:05:58.182Z,21.09
2023-03-21T11:08:27.274Z,21.10
2023-03-21T11:11:01.904Z,21.10
2023-03-21T11:13:34.963Z,21.09
2023-03-21T11:16:06.610Z,21.07
2023-03-21T11:18:34.300Z,21.05
2023-03-21T11:21:04.428Z,21.07
2023-03-21T11:23:33.022Z,21.06
2023-03-21T11:26:02.511Z,21.06
2023-03-21T11:28:34.399Z,21.08
2023-03-21T11:31:02.641Z,21.07
2023-03-21T11:33:33.985Z,21.09
2023-03-21T11:36:02.782Z,21.10
2023-03-21T11:38:32.404Z,21.11
2023-03-21T11:41:02.506Z,21.11
2023-03-21T11:43:31.953Z,21.12
2023-03-21T11:46:01.136Z,21.14
2023-03-21T11:48:28.948Z,21.14
2023-03-21T11:51:00.276Z,21.16
2023-03-21T11:53:35.457Z,21.19
2023-03-21T11:56:26.522Z,21.19
2023-03-21T11:59:16.173Z,21.23
2023-03-21T12:01:50.984Z,21.22
2023-03-21T12:04:21.868Z,21.23
2023-03-21T12:06:52.749Z,21.21
2023-03-21T12:09:29.220Z,21.21
2023-03-21T12:12:03.514Z,21.21
2023-03-21T12:14:35.520Z,21.21
2023-03-21T12:17:07.764Z,21.19
2023-03-21T12:19:50.926Z,21.19
2023-03-21T12:22:22.070Z,21.21
2023-03-21T12:24:51.730Z,21.21
2023-03-21T12:27:24.284Z,21.25
2023-03-21T12:30:00.935Z,21.27
2023-03-21T12:32:50.489Z,21.28
2023-03-21T12:35:25.557Z,21.28
2023-03-21T12:37:58.139Z,21.27
2023-03-21T12:40:34.319Z,21.27
2023-03-21T12:43:15.392Z,21.25
2023-03-21T12:45:47.387Z,21.24
2023-03-21T12:48:19.024Z,21.25
2023-03-21T12:50:47.043Z,21.25
2023-03-21T12:53:27.065Z,21.26
2023-03-21T12:55:54.988Z,21.25
2023-03-21T12:58:24.805Z,21.24
2023-03-21T13:00:54.027Z,21.25
2023-03-21T13:03:30.574Z,21.23
2023-03-21T13:06:07.469Z,21.22
2023-03-21T13:08:38.228Z,21.22
2023-03-21T13:11:06.387Z,21.24
2023-03-21T13:13:37.226Z,21.24
2023-03-21T13:16:10.578Z,21.26
2023-03-21T13:18:56.357Z,21.27
2023-03-21T13:21:31.229Z,21.28
2023-03-21T13:24:01.600Z,21.30
2023-03-21T13:26:38.093Z,21.30
2023-03-21T13:29:23.839Z,21.31
2023-03-21T13:31:54.627Z,21.31
2023-03-21T13:34:23.718Z,21.31
2023-03-21T13:36:52.018Z,21.31
2023-03-21T13:39:20.812Z,21.32
2023-03-21T13:41:49.921Z,21.32
2023-03-21T13:44:23.512Z,21.31
2023-03-21T13:47:00.551Z,21.31
2023-03-21T13:49:30.970Z,21.32
2023-03-21T13:51:59.001Z,21.32
2023-03-21T13:54:30.645Z,21.32
2023-03-21T13:57:01.328Z,21.33
2023-03-21T13:59:43.701Z,21.33
2023-03-21T14:02:30.124Z,21.33
2023-03-21T14:05:07.261Z,21.34
2023-03-21T14:07:36.574Z,21.33
2023-03-21T14:10:06.362Z,21.31
2023-03-21T14:12:38.021Z,21.30
2023-03-21T14:15:16.250Z,21.29
2023-03-21T14:17:51.200Z,21.29
2023-03-21T14:20:21.501Z,21.29
2023-03-21T14:22:49.477Z,21.29
2023-03-21T14:25:18.472Z,21.30
2023-03-21T14:27:48.291Z,21.29
2023-03-21T14:30:23.011Z,21.30
2023-03-21T14:32:50.684Z,21.30
2023-03-21T14:35:18.395Z,21.29
2023-03-21T14:37:47.998Z,21.29
2023-03-21T14:40:22.493Z,21.29
2023-03-21T14:42:50.582Z,21.28
2023-03-21T14:45:21.582Z,21.28
2023-03-21T14:47:56.214Z,21.28
2023-03-21T14:50:25.425Z,21.28
2023-03-21T14:52:54.185Z,21.27
2023-03-21T14:55:21.865Z,21.27
2023-03-21T14:57:49.537Z,21.26
2023-03-21T15:00:25.342Z,21.26
2023-03-21T15:02:53.066Z,21.25
2023-03-21T15:05:22.933Z,21.25
2023-03-21T15:07:55.176Z,21.25
2023-03-21T15:10:23.893Z,21.25
2023-03-21T15:12:52.662Z,21.25
2023-03-21T15:15:20.523Z,21.24
2023-03-21T15:17:49.679Z,21.23
2023-03-21T15:20:17.506Z,21.24
2023-03-21T15:22:46.518Z,21.24
2023-03-21T15:25:16.276Z,21.22
2023-03-21T15:27:43.934Z,21.22
2023-03-21T15:30:19.686Z,21.20
2023-03-21T15:32:48.715Z,21.19
2023-03-21T15:35:17.289Z,21.16
2023-03-21T15:37:44.965Z,21.16
2023-03-21T15:40:19.618Z,21.15
2023-03-21T15:42:47.308Z,21.14
2023-03-21T15:45:18.292Z,21.13
2023-03-21T15:47:53.946Z,21.12
2023-03-21T15:50:29.519Z,21.11
2023-03-21T15:52:57.479Z,21.10
2023-03-21T15:55:27.882Z,21.09
2023-03-21T15:57:56.212Z,21.09
2023-03-21T16:00:26.413Z,21.09
2023-03-21T16:02:57.560Z,21.07
2023-03-21T16:05:27.407Z,21.07
2023-03-21T16:07:55.136Z,21.07
2023-03-21T16:10:27.944Z,21.05
2023-03-21T16:12:55.654Z,21.05
2023-03-21T16:15:23.896Z,21.05
2023-03-21T16:17:53.360Z,21.04
2023-03-21T16:20:23.829Z,21.04
2023-03-21T16:22:51.551Z,21.03
2023-03-21T16:25:19.275Z,21.03
2023-03-21T16:27:49.192Z,21.03
2023-03-21T16:30:18.393Z,21.02
2023-03-21T16:32:46.043Z,21.01
2023-03-21T16:35:13.785Z,21.02
2023-03-21T16:37:42.860Z,21.01
2023-03-21T16:40:17.545Z,21.02
2023-03-21T16:42:45.482Z,21.01
2023-03-21T16:45:13.352Z,21.00
2023-03-21T16:47:41.149Z,20.99
2023-03-21T16:50:21.031Z,20.98
2023-03-21T16:52:50.108Z,20.99
2023-03-21T16:55:17.960Z,20.98
2023-03-21T16:57:45.974Z,20.98
2023-03-21T17:00:16.688Z,20.98
2023-03-21T17:02:44.524Z,20.99
2023-03-21T17:05:12.552Z,20.99
2023-03-21T17:07:41.770Z,21.00
2023-03-21T17:10:16.781Z,20.99
2023-03-21T17:12:44.487Z,21.01
2023-03-21T17:15:13.268Z,21.01
2023-03-21T17:17:41.148Z,21.01
2023-03-21T17:20:17.908Z,21.01
2023-03-21T17:22:45.809Z,21.01
2023-03-21T17:25:15.130Z,21.02
2023-03-21T17:27:43.100Z,21.04
2023-03-21T17:30:21.027Z,21.03
2023-03-21T17:32:49.022Z,21.05
2023-03-21T17:35:17.192Z,21.05
2023-03-21T17:37:50.484Z,21.04
2023-03-21T17:40:21.342Z,21.06
2023-03-21T17:42:49.201Z,21.06
2023-03-21T17:45:17.046Z,21.07
2023-03-21T17:47:44.852Z,21.07
2023-03-21T17:50:15.374Z,21.08
2023-03-21T17:52:43.067Z,21.07
2023-03-21T17:55:10.840Z,21.07
2023-03-21T17:57:40.207Z,21.07
2023-03-21T18:00:12.565Z,21.06
2023-03-21T18:02:40.925Z,21.05
2023-03-21T18:05:09.554Z,21.04
2023-03-21T18:08:08.077Z,21.04
2023-03-21T18:10:26.393Z,21.03
2023-03-21T18:12:56.381Z,21.02
2023-03-21T18:15:24.266Z,21.02
2023-03-21T18:17:52.024Z,21.01
2023-03-21T18:20:20.953Z,21.01
2023-03-21T18:22:48.604Z,21.00
2023-03-21T18:25:16.719Z,21.00
2023-03-21T18:28:06.801Z,20.99
2023-03-21T18:30:56.459Z,20.98
2023-03-21T18:33:21.568Z,20.99
2023-03-21T18:35:55.893Z,20.98
2023-03-21T18:38:26.364Z,20.99
2023-03-21T18:40:54.066Z,21.00
2023-03-21T18:46:11.047Z,21.02
2023-03-21T18:48:39.389Z,21.03
2023-03-21T18:51:07.498Z,21.03
2023-03-21T18:53:35.418Z,21.04
2023-03-21T18:56:03.185Z,21.04
2023-03-21T18:58:31.209Z,21.05
2023-03-21T19:00:59.025Z,21.06
2023-03-21T19:03:36.564Z,21.07
2023-03-21T19:06:05.453Z,21.07
2023-03-21T19:08:34.598Z,21.07
2023-03-21T19:11:06.013Z,21.06
2023-03-21T19:13:34.278Z,21.04
2023-03-21T19:16:02.894Z,21.05
2023-03-21T19:18:53.966Z,21.07
2023-03-21T19:21:21.468Z,21.06
2023-03-21T19:24:23.005Z,21.06
2023-03-21T19:26:36.816Z,21.07
2023-03-21T19:29:04.625Z,21.07
2023-03-21T19:31:32.613Z,21.07
2023-03-21T19:34:01.850Z,21.07
2023-03-21T19:36:29.607Z,21.09
2023-03-21T19:38:57.356Z,21.09
2023-03-21T19:41:25.441Z,21.08
2023-03-21T19:43:55.386Z,21.09
2023-03-21T19:46:25.155Z,21.09
2023-03-21T19:48:56.177Z,21.09
2023-03-21T19:51:28.823Z,21.08
2023-03-21T19:53:57.769Z,21.09
2023-03-21T19:56:27.401Z,21.09
2023-03-21T19:58:55.516Z,21.09
2023-03-21T20:01:23.960Z,21.09
2023-03-21T20:03:52.243Z,21.09
2023-03-21T20:06:22.151Z,21.09
2023-03-21T20:09:41.453Z,21.10
2023-03-21T20:11:39.338Z,21.10
2023-03-21T20:14:07.295Z,21.11
2023-03-21T20:16:36.674Z,21.12
2023-03-21T20:19:05.024Z,21.12
2023-03-21T20:21:42.594Z,21.11
2023-03-21T20:24:16.258Z,21.11
2023-03-21T20:26:44.916Z,21.11
2023-03-21T20:30:05.709Z,21.11
2023-03-21T20:32:00.682Z,21.11
2023-03-21T20:34:30.433Z,21.10
2023-03-21T20:36:58.530Z,21.11
2023-03-21T20:39:29.891Z,21.10
2023-03-21T20:41:59.401Z,21.10
2023-03-21T20:44:51.902Z,21.11
2023-03-21T20:47:15.515Z,21.11
2023-03-21T20:49:43.218Z,21.09
2023-03-21T20:55:00.033Z,21.08
2023-03-21T20:57:27.802Z,21.08
2023-03-21T20:59:55.625Z,21.08
2023-03-21T21:02:23.606Z,21.09
2023-03-21T21:05:21.849Z,21.08
2023-03-21T21:07:41.432Z,21.08
2023-03-21T21:10:11.463Z,21.09
2023-03-21T21:12:39.453Z,21.09
2023-03-21T21:15:08.420Z,21.09
2023-03-21T21:20:24.001Z,21.09
2023-03-21T21:22:59.458Z,21.10
2023-03-21T21:25:30.525Z,21.12
2023-03-21T21:27:58.269Z,21.13
2023-03-21T21:30:26.049Z,21.15
2023-03-21T21:32:53.909Z,21.16
2023-03-21T21:35:22.606Z,21.17
2023-03-21T21:37:51.069Z,21.17
2023-03-21T21:40:20.659Z,21.18
2023-03-21T21:42:49.835Z,21.18
2023-03-21T21:45:18.308Z,21.18
2023-03-21T21:47:46.239Z,21.20
2023-03-21T21:50:14.193Z,21.20
2023-03-21T21:52:44.056Z,21.20
2023-03-21T21:55:13.107Z,21.20
2023-03-21T21:57:40.938Z,21.20
2023-03-21T22:00:13.431Z,21.20
2023-03-21T22:02:42.478Z,21.21
2023-03-21T22:05:10.499Z,21.22
2023-03-21T22:07:39.110Z,21.22
2023-03-21T22:10:08.003Z,21.22
2023-03-21T22:12:35.734Z,21.21
2023-03-21T22:15:03.959Z,21.20
2023-03-21T22:17:33.033Z,21.18
2023-03-21T22:20:06.417Z,21.16
2023-03-21T22:22:34.542Z,21.15
2023-03-21T22:25:02.288Z,21.13
2023-03-21T22:27:30.010Z,21.12
2023-03-21T22:29:57.737Z,21.12
2023-03-21T22:32:25.513Z,21.10
2023-03-21T22:34:54.571Z,21.09
2023-03-21T22:37:22.316Z,21.09
2023-03-21T22:39:50.319Z,21.07
2023-03-21T22:42:17.992Z,21.07
2023-03-21T22:44:45.712Z,21.08
2023-03-21T22:47:13.427Z,21.09
2023-03-21T22:49:42.424Z,21.07
2023-03-21T22:52:12.292Z,21.08
2023-03-21T22:54:40.018Z,21.07
2023-03-21T22:57:08.505Z,21.06
2023-03-21T22:59:36.267Z,21.05
2023-03-21T23:02:03.948Z,21.04
2023-03-21T23:04:32.301Z,21.03
2023-03-21T23:07:00.033Z,21.03
2023-03-21T23:09:29.215Z,21.02
2023-03-21T23:11:56.960Z,21.00
2023-03-21T23:14:24.748Z,21.01
2023-03-21T23:16:53.480Z,21.01
2023-03-21T23:19:21.407Z,21.00
2023-03-21T23:21:49.123Z,21.00
2023-03-21T23:24:16.786Z,21.01
2023-03-21T23:26:46.183Z,20.99
2023-03-21T23:29:14.012Z,20.98
2023-03-21T23:31:41.735Z,20.98
2023-03-21T23:34:09.429Z,20.97
2023-03-21T23:36:37.147Z,20.98
2023-03-21T23:39:05.010Z,20.97
2023-03-21T23:41:32.683Z,20.97
2023-03-21T23:44:01.735Z,20.95
2023-03-21T23:46:29.412Z,20.95
2023-03-21T23:48:57.131Z,20.94
2023-03-21T23:51:24.816Z,20.95
2023-03-21T23:53:53.297Z,20.94
2023-03-21T23:56:22.133Z,20.93
2023-03-21T23:58:51.274Z,20.94
